sensor_id;sensor_type;location;lat;lon;timestamp;P1;durP1;ratioP1;P2;durP2;ratioP2
50739;SDS011;36704;52.524;17.580;2024-02-16T00:01:56;52.95;;;26.90;;
50739;SDS011;36704;52.524;17.580;2024-02-16T00:07:17;50.92;;;23.80;;
50739;SDS011;36704;52.524;17.580;2024-02-16T00:12:39;46.40;;;26.02;;
50739;SDS011;36704;52.524;17.580;2024-02-16T00:18:01;50.70;;;25.80;;
50739;SDS011;36704;52.524;17.580;2024-02-16T00:23:23;63.97;;;31.45;;
50739;SDS011;36704;52.524;17.580;2024-02-16T00:28:45;70.82;;;32.83;;
50739;SDS011;36704;52.524;17.580;2024-02-16T00:34:07;76.65;;;31.88;;
50739;SDS011;36704;52.524;17.580;2024-02-16T00:44:50;52.85;;;24.05;;
50739;SDS011;36704;52.524;17.580;2024-02-16T00:50:12;44.22;;;22.10;;
50739;SDS011;36704;52.524;17.580;2024-02-16T00:55:33;51.88;;;23.52;;
50739;SDS011;36704;52.524;17.580;2024-02-16T01:00:54;39.70;;;22.30;;
50739;SDS011;36704;52.524;17.580;2024-02-16T01:06:16;44.92;;;23.77;;
50739;SDS011;36704;52.524;17.580;2024-02-16T01:11:37;46.33;;;22.60;;
50739;SDS011;36704;52.524;17.580;2024-02-16T01:16:59;41.95;;;22.33;;
50739;SDS011;36704;52.524;17.580;2024-02-16T01:22:20;40.83;;;21.55;;
50739;SDS011;36704;52.524;17.580;2024-02-16T01:27:42;41.33;;;21.92;;
50739;SDS011;36704;52.524;17.580;2024-02-16T01:33:03;42.45;;;21.20;;
50739;SDS011;36704;52.524;17.580;2024-02-16T01:38:26;42.50;;;21.23;;
50739;SDS011;36704;52.524;17.580;2024-02-16T01:43:47;42.57;;;22.90;;
50739;SDS011;36704;52.524;17.580;2024-02-16T01:49:09;46.40;;;22.52;;
50739;SDS011;36704;52.524;17.580;2024-02-16T01:54:32;43.28;;;23.00;;
50739;SDS011;36704;52.524;17.580;2024-02-16T01:59:53;48.47;;;24.38;;
50739;SDS011;36704;52.524;17.580;2024-02-16T02:05:16;46.35;;;24.83;;
50739;SDS011;36704;52.524;17.580;2024-02-16T02:10:37;44.63;;;22.73;;
50739;SDS011;36704;52.524;17.580;2024-02-16T02:15:58;43.58;;;22.08;;
50739;SDS011;36704;52.524;17.580;2024-02-16T02:21:20;41.13;;;21.13;;
50739;SDS011;36704;52.524;17.580;2024-02-16T02:26:41;45.80;;;23.15;;
50739;SDS011;36704;52.524;17.580;2024-02-16T02:32:02;44.58;;;20.88;;
50739;SDS011;36704;52.524;17.580;2024-02-16T02:37:23;37.25;;;19.80;;
50739;SDS011;36704;52.524;17.580;2024-02-16T02:42:43;36.05;;;18.92;;
50739;SDS011;36704;52.524;17.580;2024-02-16T02:48:04;40.20;;;20.27;;
50739;SDS011;36704;52.524;17.580;2024-02-16T02:53:27;36.47;;;20.02;;
50739;SDS011;36704;52.524;17.580;2024-02-16T02:58:49;38.55;;;19.73;;
50739;SDS011;36704;52.524;17.580;2024-02-16T03:04:10;34.42;;;19.67;;
50739;SDS011;36704;52.524;17.580;2024-02-16T03:09:31;39.10;;;19.98;;
50739;SDS011;36704;52.524;17.580;2024-02-16T03:14:52;39.17;;;20.47;;
50739;SDS011;36704;52.524;17.580;2024-02-16T03:20:14;33.13;;;17.77;;
50739;SDS011;36704;52.524;17.580;2024-02-16T03:25:35;36.83;;;19.23;;
50739;SDS011;36704;52.524;17.580;2024-02-16T03:30:56;41.00;;;19.40;;
50739;SDS011;36704;52.524;17.580;2024-02-16T03:36:17;36.92;;;19.08;;
50739;SDS011;36704;52.524;17.580;2024-02-16T03:41:38;35.45;;;19.02;;
50739;SDS011;36704;52.524;17.580;2024-02-16T03:46:59;36.33;;;18.92;;
50739;SDS011;36704;52.524;17.580;2024-02-16T03:52:20;38.90;;;20.38;;
50739;SDS011;36704;52.524;17.580;2024-02-16T03:57:41;44.65;;;20.15;;
50739;SDS011;36704;52.524;17.580;2024-02-16T04:03:04;42.47;;;20.05;;
50739;SDS011;36704;52.524;17.580;2024-02-16T04:08:25;44.10;;;20.67;;
50739;SDS011;36704;52.524;17.580;2024-02-16T04:13:46;43.17;;;21.23;;
50739;SDS011;36704;52.524;17.580;2024-02-16T04:19:07;43.00;;;20.38;;
50739;SDS011;36704;52.524;17.580;2024-02-16T04:24:28;42.77;;;21.80;;
50739;SDS011;36704;52.524;17.580;2024-02-16T04:29:50;41.85;;;20.95;;
50739;SDS011;36704;52.524;17.580;2024-02-16T04:35:10;40.95;;;20.58;;
50739;SDS011;36704;52.524;17.580;2024-02-16T04:40:36;37.20;;;19.33;;
50739;SDS011;36704;52.524;17.580;2024-02-16T04:45:58;40.05;;;21.70;;
50739;SDS011;36704;52.524;17.580;2024-02-16T04:51:20;39.47;;;21.02;;
50739;SDS011;36704;52.524;17.580;2024-02-16T04:56:41;39.33;;;20.23;;
50739;SDS011;36704;52.524;17.580;2024-02-16T05:02:02;40.28;;;20.50;;
50739;SDS011;36704;52.524;17.580;2024-02-16T05:07:24;45.30;;;20.92;;
50739;SDS011;36704;52.524;17.580;2024-02-16T05:12:45;38.10;;;19.10;;
50739;SDS011;36704;52.524;17.580;2024-02-16T05:18:06;41.70;;;21.13;;
50739;SDS011;36704;52.524;17.580;2024-02-16T05:23:28;42.00;;;20.57;;
50739;SDS011;36704;52.524;17.580;2024-02-16T05:28:48;38.30;;;19.23;;
50739;SDS011;36704;52.524;17.580;2024-02-16T05:34:10;39.07;;;19.87;;
50739;SDS011;36704;52.524;17.580;2024-02-16T05:39:32;37.80;;;19.83;;
50739;SDS011;36704;52.524;17.580;2024-02-16T05:44:55;40.35;;;19.33;;
50739;SDS011;36704;52.524;17.580;2024-02-16T05:50:16;41.63;;;19.98;;
50739;SDS011;36704;52.524;17.580;2024-02-16T05:55:38;40.58;;;19.60;;
50739;SDS011;36704;52.524;17.580;2024-02-16T06:00:59;39.95;;;19.90;;
50739;SDS011;36704;52.524;17.580;2024-02-16T06:06:20;38.70;;;19.87;;
50739;SDS011;36704;52.524;17.580;2024-02-16T06:11:41;40.80;;;21.00;;
50739;SDS011;36704;52.524;17.580;2024-02-16T06:17:02;36.80;;;19.35;;
50739;SDS011;36704;52.524;17.580;2024-02-16T06:22:23;45.50;;;21.57;;
50739;SDS011;36704;52.524;17.580;2024-02-16T06:27:44;47.47;;;23.55;;
50739;SDS011;36704;52.524;17.580;2024-02-16T06:33:05;42.00;;;21.30;;
50739;SDS011;36704;52.524;17.580;2024-02-16T06:38:27;40.60;;;20.63;;
50739;SDS011;36704;52.524;17.580;2024-02-16T06:43:48;46.75;;;23.77;;
50739;SDS011;36704;52.524;17.580;2024-02-16T06:49:10;50.75;;;23.10;;
50739;SDS011;36704;52.524;17.580;2024-02-16T06:54:31;52.37;;;25.17;;
50739;SDS011;36704;52.524;17.580;2024-02-16T06:59:51;46.30;;;22.88;;
50739;SDS011;36704;52.524;17.580;2024-02-16T07:05:14;50.75;;;23.75;;
50739;SDS011;36704;52.524;17.580;2024-02-16T07:10:36;43.10;;;23.48;;
50739;SDS011;36704;52.524;17.580;2024-02-16T07:15:57;46.07;;;22.70;;
50739;SDS011;36704;52.524;17.580;2024-02-16T07:21:18;40.27;;;21.73;;
50739;SDS011;36704;52.524;17.580;2024-02-16T07:26:41;43.58;;;22.63;;
50739;SDS011;36704;52.524;17.580;2024-02-16T07:32:02;41.03;;;22.33;;
50739;SDS011;36704;52.524;17.580;2024-02-16T07:37:24;44.50;;;22.63;;
50739;SDS011;36704;52.524;17.580;2024-02-16T07:42:46;40.08;;;21.58;;
50739;SDS011;36704;52.524;17.580;2024-02-16T07:48:07;44.37;;;22.20;;
50739;SDS011;36704;52.524;17.580;2024-02-16T07:53:29;48.17;;;21.65;;
50739;SDS011;36704;52.524;17.580;2024-02-16T07:58:50;42.80;;;22.17;;
50739;SDS011;36704;52.524;17.580;2024-02-16T08:04:11;42.05;;;21.08;;
50739;SDS011;36704;52.524;17.580;2024-02-16T08:09:31;36.47;;;20.27;;
50739;SDS011;36704;52.524;17.580;2024-02-16T08:14:53;33.93;;;19.30;;
50739;SDS011;36704;52.524;17.580;2024-02-16T08:20:16;35.03;;;21.48;;
50739;SDS011;36704;52.524;17.580;2024-02-16T08:25:37;37.33;;;22.00;;
50739;SDS011;36704;52.524;17.580;2024-02-16T08:30:58;37.90;;;23.55;;
50739;SDS011;36704;52.524;17.580;2024-02-16T08:36:19;38.03;;;21.57;;
50739;SDS011;36704;52.524;17.580;2024-02-16T08:41:42;31.95;;;19.20;;
50739;SDS011;36704;52.524;17.580;2024-02-16T08:47:09;39.10;;;28.90;;
50739;SDS011;36704;52.524;17.580;2024-02-16T08:52:31;34.53;;;18.63;;
50739;SDS011;36704;52.524;17.580;2024-02-16T09:03:12;31.58;;;19.00;;
50739;SDS011;36704;52.524;17.580;2024-02-16T09:08:34;33.83;;;20.88;;
50739;SDS011;36704;52.524;17.580;2024-02-16T09:13:56;36.05;;;26.23;;
50739;SDS011;36704;52.524;17.580;2024-02-16T09:19:17;32.93;;;21.67;;
50739;SDS011;36704;52.524;17.580;2024-02-16T09:24:39;32.55;;;24.15;;
50739;SDS011;36704;52.524;17.580;2024-02-16T09:30:01;32.17;;;23.15;;
50739;SDS011;36704;52.524;17.580;2024-02-16T09:35:23;34.88;;;25.08;;
50739;SDS011;36704;52.524;17.580;2024-02-16T09:40:44;32.17;;;23.03;;
50739;SDS011;36704;52.524;17.580;2024-02-16T09:46:05;34.33;;;22.90;;
50739;SDS011;36704;52.524;17.580;2024-02-16T09:51:27;34.47;;;23.27;;
50739;SDS011;36704;52.524;17.580;2024-02-16T09:56:49;33.03;;;22.15;;
50739;SDS011;36704;52.524;17.580;2024-02-16T10:02:10;25.90;;;19.58;;
50739;SDS011;36704;52.524;17.580;2024-02-16T10:07:31;26.48;;;20.60;;
50739;SDS011;36704;52.524;17.580;2024-02-16T10:13:02;48.95;;;25.60;;
50739;SDS011;36704;52.524;17.580;2024-02-16T10:18:27;26.85;;;18.77;;
50739;SDS011;36704;52.524;17.580;2024-02-16T10:24:01;26.42;;;19.00;;
50739;SDS011;36704;52.524;17.580;2024-02-16T10:29:23;35.05;;;23.00;;
50739;SDS011;36704;52.524;17.580;2024-02-16T10:34:48;26.90;;;19.27;;
50739;SDS011;36704;52.524;17.580;2024-02-16T10:40:11;28.58;;;20.48;;
50739;SDS011;36704;52.524;17.580;2024-02-16T10:45:38;24.23;;;17.17;;
50739;SDS011;36704;52.524;17.580;2024-02-16T10:51:00;22.52;;;17.75;;
50739;SDS011;36704;52.524;17.580;2024-02-16T10:56:35;27.13;;;17.92;;
50739;SDS011;36704;52.524;17.580;2024-02-16T11:02:00;22.20;;;17.20;;
50739;SDS011;36704;52.524;17.580;2024-02-16T11:07:21;19.25;;;15.80;;
50739;SDS011;36704;52.524;17.580;2024-02-16T11:12:43;18.70;;;14.40;;
50739;SDS011;36704;52.524;17.580;2024-02-16T11:18:07;19.25;;;14.80;;
50739;SDS011;36704;52.524;17.580;2024-02-16T11:23:31;21.80;;;16.73;;
50739;SDS011;36704;52.524;17.580;2024-02-16T11:28:52;36.90;;;18.73;;
50739;SDS011;36704;52.524;17.580;2024-02-16T11:34:23;26.25;;;17.50;;
50739;SDS011;36704;52.524;17.580;2024-02-16T11:39:47;19.55;;;14.27;;
50739;SDS011;36704;52.524;17.580;2024-02-16T11:45:09;20.48;;;14.98;;
50739;SDS011;36704;52.524;17.580;2024-02-16T11:50:32;18.15;;;14.15;;
50739;SDS011;36704;52.524;17.580;2024-02-16T11:55:52;19.07;;;13.37;;
50739;SDS011;36704;52.524;17.580;2024-02-16T12:01:13;18.27;;;14.02;;
50739;SDS011;36704;52.524;17.580;2024-02-16T12:06:35;17.45;;;13.25;;
50739;SDS011;36704;52.524;17.580;2024-02-16T12:11:57;19.25;;;15.15;;
50739;SDS011;36704;52.524;17.580;2024-02-16T12:17:18;20.45;;;14.93;;
50739;SDS011;36704;52.524;17.580;2024-02-16T12:22:39;25.43;;;17.60;;
50739;SDS011;36704;52.524;17.580;2024-02-16T12:28:01;25.38;;;17.63;;
50739;SDS011;36704;52.524;17.580;2024-02-16T12:33:22;27.07;;;18.57;;
50739;SDS011;36704;52.524;17.580;2024-02-16T12:38:43;36.67;;;25.73;;
50739;SDS011;36704;52.524;17.580;2024-02-16T12:44:05;29.15;;;19.08;;
50739;SDS011;36704;52.524;17.580;2024-02-16T12:49:26;28.17;;;20.70;;
50739;SDS011;36704;52.524;17.580;2024-02-16T12:54:47;23.75;;;17.55;;
50739;SDS011;36704;52.524;17.580;2024-02-16T13:00:08;25.67;;;20.05;;
50739;SDS011;36704;52.524;17.580;2024-02-16T13:05:30;29.55;;;21.02;;
50739;SDS011;36704;52.524;17.580;2024-02-16T13:10:53;26.98;;;20.40;;
50739;SDS011;36704;52.524;17.580;2024-02-16T13:16:15;29.23;;;21.48;;
50739;SDS011;36704;52.524;17.580;2024-02-16T13:21:36;30.65;;;20.45;;
50739;SDS011;36704;52.524;17.580;2024-02-16T13:26:57;28.35;;;21.10;;
50739;SDS011;36704;52.524;17.580;2024-02-16T13:32:18;32.00;;;22.77;;
50739;SDS011;36704;52.524;17.580;2024-02-16T13:37:40;31.20;;;24.30;;
50739;SDS011;36704;52.524;17.580;2024-02-16T13:43:04;44.15;;;29.08;;
50739;SDS011;36704;52.524;17.580;2024-02-16T13:48:25;60.63;;;42.65;;
50739;SDS011;36704;52.524;17.580;2024-02-16T13:53:46;38.92;;;31.85;;
50739;SDS011;36704;52.524;17.580;2024-02-16T13:59:07;44.30;;;33.77;;
50739;SDS011;36704;52.524;17.580;2024-02-16T14:04:28;38.13;;;32.80;;
50739;SDS011;36704;52.524;17.580;2024-02-16T14:09:49;32.55;;;23.75;;
50739;SDS011;36704;52.524;17.580;2024-02-16T14:15:11;31.10;;;24.27;;
50739;SDS011;36704;52.524;17.580;2024-02-16T14:20:36;49.10;;;33.17;;
50739;SDS011;36704;52.524;17.580;2024-02-16T14:25:58;30.13;;;22.02;;
50739;SDS011;36704;52.524;17.580;2024-02-16T14:31:19;23.73;;;18.67;;
50739;SDS011;36704;52.524;17.580;2024-02-16T14:36:41;31.17;;;21.05;;
50739;SDS011;36704;52.524;17.580;2024-02-16T14:42:02;28.48;;;20.30;;
50739;SDS011;36704;52.524;17.580;2024-02-16T14:47:24;28.38;;;19.42;;
50739;SDS011;36704;52.524;17.580;2024-02-16T14:52:45;30.95;;;23.55;;
50739;SDS011;36704;52.524;17.580;2024-02-16T14:58:06;38.38;;;25.02;;
50739;SDS011;36704;52.524;17.580;2024-02-16T15:03:28;42.50;;;29.60;;
50739;SDS011;36704;52.524;17.580;2024-02-16T15:08:51;52.95;;;33.08;;
50739;SDS011;36704;52.524;17.580;2024-02-16T15:14:12;99.22;;;68.45;;
50739;SDS011;36704;52.524;17.580;2024-02-16T15:19:38;63.08;;;48.55;;
50739;SDS011;36704;52.524;17.580;2024-02-16T15:25:00;71.07;;;43.42;;
50739;SDS011;36704;52.524;17.580;2024-02-16T15:30:23;73.85;;;51.17;;
50739;SDS011;36704;52.524;17.580;2024-02-16T15:35:44;56.13;;;38.78;;
50739;SDS011;36704;52.524;17.580;2024-02-16T15:41:06;124.20;;;67.33;;
50739;SDS011;36704;52.524;17.580;2024-02-16T15:46:28;68.00;;;38.38;;
50739;SDS011;36704;52.524;17.580;2024-02-16T15:51:48;93.27;;;54.03;;
50739;SDS011;36704;52.524;17.580;2024-02-16T15:57:10;62.83;;;40.92;;
50739;SDS011;36704;52.524;17.580;2024-02-16T16:02:32;76.57;;;45.10;;
50739;SDS011;36704;52.524;17.580;2024-02-16T16:07:53;49.43;;;31.97;;
50739;SDS011;36704;52.524;17.580;2024-02-16T16:13:14;118.07;;;56.28;;
50739;SDS011;36704;52.524;17.580;2024-02-16T16:18:36;47.92;;;30.45;;
50739;SDS011;36704;52.524;17.580;2024-02-16T16:23:57;56.30;;;33.38;;
50739;SDS011;36704;52.524;17.580;2024-02-16T16:29:18;34.67;;;22.83;;
50739;SDS011;36704;52.524;17.580;2024-02-16T16:34:39;41.07;;;24.73;;
50739;SDS011;36704;52.524;17.580;2024-02-16T16:40:01;46.50;;;29.50;;
50739;SDS011;36704;52.524;17.580;2024-02-16T16:45:26;56.38;;;35.63;;
50739;SDS011;36704;52.524;17.580;2024-02-16T16:50:49;55.58;;;34.50;;
50739;SDS011;36704;52.524;17.580;2024-02-16T16:56:10;64.43;;;37.77;;
50739;SDS011;36704;52.524;17.580;2024-02-16T17:01:31;118.45;;;54.65;;
50739;SDS011;36704;52.524;17.580;2024-02-16T17:06:52;84.38;;;48.22;;
50739;SDS011;36704;52.524;17.580;2024-02-16T17:12:13;83.07;;;42.67;;
50739;SDS011;36704;52.524;17.580;2024-02-16T17:17:38;62.03;;;42.90;;
50739;SDS011;36704;52.524;17.580;2024-02-16T17:23:02;50.35;;;33.05;;
50739;SDS011;36704;52.524;17.580;2024-02-16T17:28:24;55.83;;;41.50;;
50739;SDS011;36704;52.524;17.580;2024-02-16T17:33:45;50.00;;;36.15;;
50739;SDS011;36704;52.524;17.580;2024-02-16T17:39:07;49.17;;;23.15;;
50739;SDS011;36704;52.524;17.580;2024-02-16T17:44:29;60.78;;;42.03;;
50739;SDS011;36704;52.524;17.580;2024-02-16T17:49:50;50.15;;;34.47;;
50739;SDS011;36704;52.524;17.580;2024-02-16T17:55:12;75.03;;;43.33;;
50739;SDS011;36704;52.524;17.580;2024-02-16T18:00:33;66.97;;;39.92;;
50739;SDS011;36704;52.524;17.580;2024-02-16T18:05:54;91.18;;;39.28;;
50739;SDS011;36704;52.524;17.580;2024-02-16T18:11:19;114.20;;;67.55;;
50739;SDS011;36704;52.524;17.580;2024-02-16T18:16:41;101.80;;;57.85;;
50739;SDS011;36704;52.524;17.580;2024-02-16T18:22:02;150.70;;;70.13;;
50739;SDS011;36704;52.524;17.580;2024-02-16T18:27:23;102.40;;;45.65;;
50739;SDS011;36704;52.524;17.580;2024-02-16T18:32:44;100.00;;;45.60;;
50739;SDS011;36704;52.524;17.580;2024-02-16T18:38:05;69.43;;;38.43;;
50739;SDS011;36704;52.524;17.580;2024-02-16T18:43:26;76.68;;;42.60;;
50739;SDS011;36704;52.524;17.580;2024-02-16T18:48:47;40.43;;;19.77;;
50739;SDS011;36704;52.524;17.580;2024-02-16T18:54:09;44.30;;;20.73;;
50739;SDS011;36704;52.524;17.580;2024-02-16T18:59:31;51.92;;;29.38;;
50739;SDS011;36704;52.524;17.580;2024-02-16T19:04:51;56.70;;;30.15;;
50739;SDS011;36704;52.524;17.580;2024-02-16T19:10:13;39.85;;;19.48;;
50739;SDS011;36704;52.524;17.580;2024-02-16T19:15:33;40.60;;;25.00;;
50739;SDS011;36704;52.524;17.580;2024-02-16T19:20:55;29.35;;;15.70;;
50739;SDS011;36704;52.524;17.580;2024-02-16T19:26:17;40.17;;;22.63;;
50739;SDS011;36704;52.524;17.580;2024-02-16T19:31:39;51.10;;;26.73;;
50739;SDS011;36704;52.524;17.580;2024-02-16T19:36:59;65.18;;;41.08;;
50739;SDS011;36704;52.524;17.580;2024-02-16T19:42:21;43.67;;;25.27;;
50739;SDS011;36704;52.524;17.580;2024-02-16T19:47:41;40.10;;;25.10;;
50739;SDS011;36704;52.524;17.580;2024-02-16T19:53:04;54.20;;;36.33;;
50739;SDS011;36704;52.524;17.580;2024-02-16T19:58:26;45.05;;;22.10;;
50739;SDS011;36704;52.524;17.580;2024-02-16T20:03:47;42.73;;;21.07;;
50739;SDS011;36704;52.524;17.580;2024-02-16T20:09:09;45.95;;;20.40;;
50739;SDS011;36704;52.524;17.580;2024-02-16T20:14:30;48.40;;;22.42;;
50739;SDS011;36704;52.524;17.580;2024-02-16T20:19:51;60.05;;;30.35;;
50739;SDS011;36704;52.524;17.580;2024-02-16T20:25:14;57.75;;;24.45;;
50739;SDS011;36704;52.524;17.580;2024-02-16T20:30:35;40.03;;;21.73;;
50739;SDS011;36704;52.524;17.580;2024-02-16T20:35:56;25.77;;;13.63;;
50739;SDS011;36704;52.524;17.580;2024-02-16T20:41:17;29.70;;;15.17;;
50739;SDS011;36704;52.524;17.580;2024-02-16T20:46:38;35.22;;;22.45;;
50739;SDS011;36704;52.524;17.580;2024-02-16T20:52:00;26.95;;;13.48;;
50739;SDS011;36704;52.524;17.580;2024-02-16T20:57:20;28.05;;;18.50;;
50739;SDS011;36704;52.524;17.580;2024-02-16T21:02:42;27.20;;;13.57;;
50739;SDS011;36704;52.524;17.580;2024-02-16T21:08:03;30.90;;;18.13;;
50739;SDS011;36704;52.524;17.580;2024-02-16T21:13:24;28.17;;;16.77;;
50739;SDS011;36704;52.524;17.580;2024-02-16T21:18:45;35.93;;;19.87;;
50739;SDS011;36704;52.524;17.580;2024-02-16T21:24:06;31.38;;;19.70;;
50739;SDS011;36704;52.524;17.580;2024-02-16T21:29:27;24.55;;;14.93;;
50739;SDS011;36704;52.524;17.580;2024-02-16T21:34:48;29.50;;;14.60;;
50739;SDS011;36704;52.524;17.580;2024-02-16T21:40:11;26.70;;;19.02;;
50739;SDS011;36704;52.524;17.580;2024-02-16T21:45:32;30.35;;;18.25;;
50739;SDS011;36704;52.524;17.580;2024-02-16T21:50:53;26.42;;;13.90;;
50739;SDS011;36704;52.524;17.580;2024-02-16T22:01:38;20.23;;;11.52;;
50739;SDS011;36704;52.524;17.580;2024-02-16T22:06:59;23.13;;;14.48;;
50739;SDS011;36704;52.524;17.580;2024-02-16T22:12:20;24.25;;;12.57;;
50739;SDS011;36704;52.524;17.580;2024-02-16T22:17:42;21.17;;;10.55;;
50739;SDS011;36704;52.524;17.580;2024-02-16T22:23:03;19.80;;;12.75;;
50739;SDS011;36704;52.524;17.580;2024-02-16T22:28:24;21.93;;;12.30;;
50739;SDS011;36704;52.524;17.580;2024-02-16T22:33:45;19.92;;;11.25;;
50739;SDS011;36704;52.524;17.580;2024-02-16T22:39:06;18.20;;;11.48;;
50739;SDS011;36704;52.524;17.580;2024-02-16T22:44:27;17.30;;;10.53;;
50739;SDS011;36704;52.524;17.580;2024-02-16T22:49:47;18.08;;;11.90;;
50739;SDS011;36704;52.524;17.580;2024-02-16T22:55:09;19.15;;;10.15;;
50739;SDS011;36704;52.524;17.580;2024-02-16T23:00:30;15.50;;;10.03;;
50739;SDS011;36704;52.524;17.580;2024-02-16T23:06:00;18.98;;;12.32;;
50739;SDS011;36704;52.524;17.580;2024-02-16T23:11:24;17.00;;;10.68;;
50739;SDS011;36704;52.524;17.580;2024-02-16T23:16:47;18.27;;;12.48;;
50739;SDS011;36704;52.524;17.580;2024-02-16T23:22:08;19.27;;;14.00;;
50739;SDS011;36704;52.524;17.580;2024-02-16T23:27:29;21.70;;;13.05;;
50739;SDS011;36704;52.524;17.580;2024-02-16T23:32:53;18.65;;;10.82;;
50739;SDS011;36704;52.524;17.580;2024-02-16T23:38:15;20.50;;;13.27;;
50739;SDS011;36704;52.524;17.580;2024-02-16T23:43:35;22.92;;;13.25;;
50739;SDS011;36704;52.524;17.580;2024-02-16T23:48:57;23.23;;;13.15;;
50739;SDS011;36704;52.524;17.580;2024-02-16T23:54:18;19.83;;;11.48;;
50739;SDS011;36704;52.524;17.580;2024-02-16T23:59:39;26.63;;;15.57;;
